sensor_id;sensor_type;location;lat;lon;timestamp;P1;durP1;ratioP1;P2;durP2;ratioP2
51981;SDS011;37998;53.416;6.730;2023-07-29T00:01:40;11.32;;;10.23;;
51981;SDS011;37998;53.416;6.730;2023-07-29T00:04:06;12.02;;;9.88;;
51981;SDS011;37998;53.416;6.730;2023-07-29T00:06:34;10.85;;;9.75;;
51981;SDS011;37998;53.416;6.730;2023-07-29T00:09:00;12.52;;;9.93;;
51981;SDS011;37998;53.416;6.730;2023-07-29T00:11:26;12.18;;;10.98;;
51981;SDS011;37998;53.416;6.730;2023-07-29T00:13:52;12.20;;;10.85;;
51981;SDS011;37998;53.416;6.730;2023-07-29T00:16:18;11.00;;;9.77;;
51981;SDS011;37998;53.416;6.730;2023-07-29T00:18:47;12.05;;;10.45;;
51981;SDS011;37998;53.416;6.730;2023-07-29T00:21:14;12.70;;;10.40;;
51981;SDS011;37998;53.416;6.730;2023-07-29T00:23:39;11.30;;;9.88;;
51981;SDS011;37998;53.416;6.730;2023-07-29T00:26:05;10.80;;;9.48;;
51981;SDS011;37998;53.416;6.730;2023-07-29T00:28:31;11.15;;;9.63;;
51981;SDS011;37998;53.416;6.730;2023-07-29T00:30:58;13.43;;;9.80;;
51981;SDS011;37998;53.416;6.730;2023-07-29T00:33:26;12.82;;;9.32;;
51981;SDS011;37998;53.416;6.730;2023-07-29T00:35:52;11.32;;;10.20;;
51981;SDS011;37998;53.416;6.730;2023-07-29T00:38:18;14.07;;;10.10;;
51981;SDS011;37998;53.416;6.730;2023-07-29T00:40:47;16.77;;;9.70;;
51981;SDS011;37998;53.416;6.730;2023-07-29T00:43:14;11.73;;;9.93;;
51981;SDS011;37998;53.416;6.730;2023-07-29T00:45:40;10.77;;;9.43;;
51981;SDS011;37998;53.416;6.730;2023-07-29T00:48:08;12.77;;;10.05;;
51981;SDS011;37998;53.416;6.730;2023-07-29T00:50:34;10.77;;;9.77;;
51981;SDS011;37998;53.416;6.730;2023-07-29T00:53:00;10.57;;;9.02;;
51981;SDS011;37998;53.416;6.730;2023-07-29T00:55:27;12.65;;;9.38;;
51981;SDS011;37998;53.416;6.730;2023-07-29T00:57:53;12.07;;;9.57;;
51981;SDS011;37998;53.416;6.730;2023-07-29T01:00:20;12.15;;;9.60;;
51981;SDS011;37998;53.416;6.730;2023-07-29T01:02:47;12.10;;;9.02;;
51981;SDS011;37998;53.416;6.730;2023-07-29T01:05:13;12.48;;;9.30;;
51981;SDS011;37998;53.416;6.730;2023-07-29T01:16:09;10.45;;;9.32;;
51981;SDS011;37998;53.416;6.730;2023-07-29T01:18:42;10.82;;;8.75;;
51981;SDS011;37998;53.416;6.730;2023-07-29T01:21:12;10.55;;;9.45;;
51981;SDS011;37998;53.416;6.730;2023-07-29T01:23:39;14.60;;;9.63;;
51981;SDS011;37998;53.416;6.730;2023-07-29T01:26:05;13.30;;;9.05;;
51981;SDS011;37998;53.416;6.730;2023-07-29T01:28:32;13.77;;;9.32;;
51981;SDS011;37998;53.416;6.730;2023-07-29T01:31:02;11.35;;;9.38;;
51981;SDS011;37998;53.416;6.730;2023-07-29T01:33:47;11.63;;;9.10;;
51981;SDS011;37998;53.416;6.730;2023-07-29T01:36:21;10.98;;;9.32;;
51981;SDS011;37998;53.416;6.730;2023-07-29T01:38:52;10.48;;;9.38;;
51981;SDS011;37998;53.416;6.730;2023-07-29T01:41:21;11.45;;;10.18;;
51981;SDS011;37998;53.416;6.730;2023-07-29T01:43:49;13.75;;;9.82;;
51981;SDS011;37998;53.416;6.730;2023-07-29T01:46:16;20.02;;;10.30;;
51981;SDS011;37998;53.416;6.730;2023-07-29T01:48:42;11.70;;;9.68;;
51981;SDS011;37998;53.416;6.730;2023-07-29T01:51:08;13.13;;;9.90;;
51981;SDS011;37998;53.416;6.730;2023-07-29T01:53:37;11.57;;;9.15;;
51981;SDS011;37998;53.416;6.730;2023-07-29T01:56:06;10.82;;;9.65;;
51981;SDS011;37998;53.416;6.730;2023-07-29T01:58:33;11.30;;;9.95;;
51981;SDS011;37998;53.416;6.730;2023-07-29T02:00:59;11.43;;;10.00;;
51981;SDS011;37998;53.416;6.730;2023-07-29T02:03:25;14.60;;;10.48;;
51981;SDS011;37998;53.416;6.730;2023-07-29T02:05:51;13.52;;;10.05;;
51981;SDS011;37998;53.416;6.730;2023-07-29T02:08:17;12.20;;;9.63;;
51981;SDS011;37998;53.416;6.730;2023-07-29T02:10:43;11.82;;;9.70;;
51981;SDS011;37998;53.416;6.730;2023-07-29T02:13:11;11.68;;;9.82;;
51981;SDS011;37998;53.416;6.730;2023-07-29T02:15:37;12.77;;;10.30;;
51981;SDS011;37998;53.416;6.730;2023-07-29T02:18:03;16.38;;;10.38;;
51981;SDS011;37998;53.416;6.730;2023-07-29T02:20:31;10.48;;;9.48;;
51981;SDS011;37998;53.416;6.730;2023-07-29T02:22:57;12.27;;;9.95;;
51981;SDS011;37998;53.416;6.730;2023-07-29T02:25:23;11.65;;;9.68;;
51981;SDS011;37998;53.416;6.730;2023-07-29T02:27:49;13.30;;;10.27;;
51981;SDS011;37998;53.416;6.730;2023-07-29T02:30:15;12.02;;;10.30;;
51981;SDS011;37998;53.416;6.730;2023-07-29T02:32:41;11.88;;;9.73;;
51981;SDS011;37998;53.416;6.730;2023-07-29T02:35:07;12.70;;;10.23;;
51981;SDS011;37998;53.416;6.730;2023-07-29T02:37:33;12.90;;;9.90;;
51981;SDS011;37998;53.416;6.730;2023-07-29T02:39:59;12.88;;;9.48;;
51981;SDS011;37998;53.416;6.730;2023-07-29T02:42:25;10.50;;;9.38;;
51981;SDS011;37998;53.416;6.730;2023-07-29T02:44:51;10.82;;;9.57;;
51981;SDS011;37998;53.416;6.730;2023-07-29T02:47:18;10.43;;;9.18;;
51981;SDS011;37998;53.416;6.730;2023-07-29T02:49:43;11.27;;;9.68;;
51981;SDS011;37998;53.416;6.730;2023-07-29T02:52:09;11.57;;;9.68;;
51981;SDS011;37998;53.416;6.730;2023-07-29T02:54:35;13.20;;;10.18;;
51981;SDS011;37998;53.416;6.730;2023-07-29T02:57:01;10.68;;;9.57;;
51981;SDS011;37998;53.416;6.730;2023-07-29T02:59:27;12.88;;;10.38;;
51981;SDS011;37998;53.416;6.730;2023-07-29T03:01:53;11.93;;;9.73;;
51981;SDS011;37998;53.416;6.730;2023-07-29T03:04:19;12.43;;;10.38;;
51981;SDS011;37998;53.416;6.730;2023-07-29T03:06:46;11.35;;;9.60;;
51981;SDS011;37998;53.416;6.730;2023-07-29T03:09:13;11.95;;;10.57;;
51981;SDS011;37998;53.416;6.730;2023-07-29T03:11:39;14.93;;;10.23;;
51981;SDS011;37998;53.416;6.730;2023-07-29T03:14:05;15.00;;;9.90;;
51981;SDS011;37998;53.416;6.730;2023-07-29T03:16:34;12.65;;;9.88;;
51981;SDS011;37998;53.416;6.730;2023-07-29T03:19:00;12.98;;;10.20;;
51981;SDS011;37998;53.416;6.730;2023-07-29T03:21:26;14.88;;;10.45;;
51981;SDS011;37998;53.416;6.730;2023-07-29T03:23:52;12.77;;;10.18;;
51981;SDS011;37998;53.416;6.730;2023-07-29T03:26:18;14.38;;;11.02;;
51981;SDS011;37998;53.416;6.730;2023-07-29T03:28:44;12.27;;;10.52;;
51981;SDS011;37998;53.416;6.730;2023-07-29T03:31:10;13.13;;;10.65;;
51981;SDS011;37998;53.416;6.730;2023-07-29T03:33:37;11.07;;;9.52;;
51981;SDS011;37998;53.416;6.730;2023-07-29T03:36:03;13.35;;;10.68;;
51981;SDS011;37998;53.416;6.730;2023-07-29T03:38:29;13.55;;;11.30;;
51981;SDS011;37998;53.416;6.730;2023-07-29T03:40:55;12.43;;;10.63;;
51981;SDS011;37998;53.416;6.730;2023-07-29T03:43:22;13.88;;;10.65;;
51981;SDS011;37998;53.416;6.730;2023-07-29T03:45:48;13.52;;;10.23;;
51981;SDS011;37998;53.416;6.730;2023-07-29T03:48:14;15.15;;;11.25;;
51981;SDS011;37998;53.416;6.730;2023-07-29T03:50:40;14.77;;;10.65;;
51981;SDS011;37998;53.416;6.730;2023-07-29T03:53:06;15.88;;;11.27;;
51981;SDS011;37998;53.416;6.730;2023-07-29T03:55:32;12.13;;;10.35;;
51981;SDS011;37998;53.416;6.730;2023-07-29T03:58:01;13.80;;;10.57;;
51981;SDS011;37998;53.416;6.730;2023-07-29T04:00:27;13.20;;;11.65;;
51981;SDS011;37998;53.416;6.730;2023-07-29T04:02:56;15.85;;;11.10;;
51981;SDS011;37998;53.416;6.730;2023-07-29T04:05:22;12.27;;;9.50;;
51981;SDS011;37998;53.416;6.730;2023-07-29T04:07:48;13.60;;;10.35;;
51981;SDS011;37998;53.416;6.730;2023-07-29T04:10:14;13.45;;;9.95;;
51981;SDS011;37998;53.416;6.730;2023-07-29T04:12:40;13.60;;;10.63;;
51981;SDS011;37998;53.416;6.730;2023-07-29T04:15:06;12.85;;;10.40;;
51981;SDS011;37998;53.416;6.730;2023-07-29T04:17:33;13.00;;;10.73;;
51981;SDS011;37998;53.416;6.730;2023-07-29T04:19:58;11.25;;;9.63;;
51981;SDS011;37998;53.416;6.730;2023-07-29T04:22:30;14.02;;;10.05;;
51981;SDS011;37998;53.416;6.730;2023-07-29T04:24:56;14.27;;;10.00;;
51981;SDS011;37998;53.416;6.730;2023-07-29T04:27:22;14.77;;;9.80;;
51981;SDS011;37998;53.416;6.730;2023-07-29T04:29:48;12.45;;;9.70;;
51981;SDS011;37998;53.416;6.730;2023-07-29T04:32:14;13.43;;;10.13;;
51981;SDS011;37998;53.416;6.730;2023-07-29T04:34:42;12.48;;;9.45;;
51981;SDS011;37998;53.416;6.730;2023-07-29T04:37:08;14.75;;;9.98;;
51981;SDS011;37998;53.416;6.730;2023-07-29T04:39:36;11.18;;;9.63;;
51981;SDS011;37998;53.416;6.730;2023-07-29T04:42:02;15.82;;;9.32;;
51981;SDS011;37998;53.416;6.730;2023-07-29T04:44:29;12.82;;;9.48;;
51981;SDS011;37998;53.416;6.730;2023-07-29T04:46:54;13.10;;;9.85;;
51981;SDS011;37998;53.416;6.730;2023-07-29T04:49:20;11.77;;;9.07;;
51981;SDS011;37998;53.416;6.730;2023-07-29T04:51:46;12.05;;;9.18;;
51981;SDS011;37998;53.416;6.730;2023-07-29T04:54:12;12.32;;;9.43;;
51981;SDS011;37998;53.416;6.730;2023-07-29T04:56:38;12.75;;;8.82;;
51981;SDS011;37998;53.416;6.730;2023-07-29T04:59:04;12.95;;;9.35;;
51981;SDS011;37998;53.416;6.730;2023-07-29T05:01:31;13.93;;;9.73;;
51981;SDS011;37998;53.416;6.730;2023-07-29T05:03:57;10.57;;;8.82;;
51981;SDS011;37998;53.416;6.730;2023-07-29T05:06:23;14.05;;;8.93;;
51981;SDS011;37998;53.416;6.730;2023-07-29T05:08:49;13.05;;;8.70;;
51981;SDS011;37998;53.416;6.730;2023-07-29T05:11:15;11.80;;;8.02;;
51981;SDS011;37998;53.416;6.730;2023-07-29T05:13:41;12.35;;;7.82;;
51981;SDS011;37998;53.416;6.730;2023-07-29T05:16:09;13.45;;;7.25;;
51981;SDS011;37998;53.416;6.730;2023-07-29T05:18:38;11.10;;;7.25;;
51981;SDS011;37998;53.416;6.730;2023-07-29T05:21:04;9.40;;;6.95;;
51981;SDS011;37998;53.416;6.730;2023-07-29T05:23:30;11.13;;;6.88;;
51981;SDS011;37998;53.416;6.730;2023-07-29T05:25:56;12.93;;;6.97;;
51981;SDS011;37998;53.416;6.730;2023-07-29T05:28:23;9.18;;;6.40;;
51981;SDS011;37998;53.416;6.730;2023-07-29T05:30:49;10.13;;;6.60;;
51981;SDS011;37998;53.416;6.730;2023-07-29T05:33:15;8.07;;;6.75;;
51981;SDS011;37998;53.416;6.730;2023-07-29T05:35:42;9.07;;;6.10;;
51981;SDS011;37998;53.416;6.730;2023-07-29T05:38:08;12.23;;;6.32;;
51981;SDS011;37998;53.416;6.730;2023-07-29T05:40:34;7.72;;;5.90;;
51981;SDS011;37998;53.416;6.730;2023-07-29T05:43:00;8.00;;;6.28;;
51981;SDS011;37998;53.416;6.730;2023-07-29T05:45:28;9.75;;;6.25;;
51981;SDS011;37998;53.416;6.730;2023-07-29T05:47:56;11.43;;;6.05;;
51981;SDS011;37998;53.416;6.730;2023-07-29T05:50:22;10.07;;;6.30;;
51981;SDS011;37998;53.416;6.730;2023-07-29T05:52:48;8.65;;;5.80;;
51981;SDS011;37998;53.416;6.730;2023-07-29T05:55:14;13.20;;;6.10;;
51981;SDS011;37998;53.416;6.730;2023-07-29T05:57:40;12.05;;;6.20;;
51981;SDS011;37998;53.416;6.730;2023-07-29T06:00:07;10.35;;;6.00;;
51981;SDS011;37998;53.416;6.730;2023-07-29T06:02:42;7.70;;;5.72;;
51981;SDS011;37998;53.416;6.730;2023-07-29T06:05:12;10.55;;;5.80;;
51981;SDS011;37998;53.416;6.730;2023-07-29T06:07:38;9.38;;;5.80;;
51981;SDS011;37998;53.416;6.730;2023-07-29T06:10:09;10.45;;;5.68;;
51981;SDS011;37998;53.416;6.730;2023-07-29T06:12:38;11.40;;;5.78;;
51981;SDS011;37998;53.416;6.730;2023-07-29T06:15:07;8.93;;;5.50;;
51981;SDS011;37998;53.416;6.730;2023-07-29T06:17:33;7.68;;;5.05;;
51981;SDS011;37998;53.416;6.730;2023-07-29T06:19:59;14.02;;;5.22;;
51981;SDS011;37998;53.416;6.730;2023-07-29T06:22:25;7.50;;;5.28;;
51981;SDS011;37998;53.416;6.730;2023-07-29T06:24:51;6.97;;;5.53;;
51981;SDS011;37998;53.416;6.730;2023-07-29T06:27:17;11.75;;;6.38;;
51981;SDS011;37998;53.416;6.730;2023-07-29T06:29:43;11.23;;;5.57;;
51981;SDS011;37998;53.416;6.730;2023-07-29T06:32:08;7.93;;;5.45;;
51981;SDS011;37998;53.416;6.730;2023-07-29T06:34:34;9.68;;;6.00;;
51981;SDS011;37998;53.416;6.730;2023-07-29T06:37:00;7.22;;;5.25;;
51981;SDS011;37998;53.416;6.730;2023-07-29T06:39:26;12.80;;;5.38;;
51981;SDS011;37998;53.416;6.730;2023-07-29T06:41:58;8.32;;;5.13;;
51981;SDS011;37998;53.416;6.730;2023-07-29T06:44:24;5.80;;;4.63;;
51981;SDS011;37998;53.416;6.730;2023-07-29T06:46:50;6.82;;;5.22;;
51981;SDS011;37998;53.416;6.730;2023-07-29T06:49:16;11.35;;;5.15;;
51981;SDS011;37998;53.416;6.730;2023-07-29T06:51:42;8.93;;;5.05;;
51981;SDS011;37998;53.416;6.730;2023-07-29T06:54:08;10.02;;;4.63;;
51981;SDS011;37998;53.416;6.730;2023-07-29T06:56:37;9.32;;;5.10;;
51981;SDS011;37998;53.416;6.730;2023-07-29T06:59:03;11.70;;;4.97;;
51981;SDS011;37998;53.416;6.730;2023-07-29T07:01:29;6.00;;;4.55;;
51981;SDS011;37998;53.416;6.730;2023-07-29T07:03:55;7.07;;;4.40;;
51981;SDS011;37998;53.416;6.730;2023-07-29T07:06:23;10.27;;;5.53;;
51981;SDS011;37998;53.416;6.730;2023-07-29T07:08:50;8.23;;;4.95;;
51981;SDS011;37998;53.416;6.730;2023-07-29T07:11:17;10.13;;;4.55;;
51981;SDS011;37998;53.416;6.730;2023-07-29T07:13:44;11.65;;;4.68;;
51981;SDS011;37998;53.416;6.730;2023-07-29T07:16:09;8.77;;;4.07;;
51981;SDS011;37998;53.416;6.730;2023-07-29T07:18:35;9.68;;;4.80;;
51981;SDS011;37998;53.416;6.730;2023-07-29T07:21:01;10.93;;;4.53;;
51981;SDS011;37998;53.416;6.730;2023-07-29T07:23:28;8.93;;;4.68;;
51981;SDS011;37998;53.416;6.730;2023-07-29T07:25:54;8.25;;;4.68;;
51981;SDS011;37998;53.416;6.730;2023-07-29T07:28:20;7.72;;;4.97;;
51981;SDS011;37998;53.416;6.730;2023-07-29T07:30:46;12.88;;;5.13;;
51981;SDS011;37998;53.416;6.730;2023-07-29T07:33:12;13.15;;;4.68;;
51981;SDS011;37998;53.416;6.730;2023-07-29T07:35:38;9.00;;;4.88;;
51981;SDS011;37998;53.416;6.730;2023-07-29T07:38:04;11.48;;;4.70;;
51981;SDS011;37998;53.416;6.730;2023-07-29T07:40:33;9.55;;;4.78;;
51981;SDS011;37998;53.416;6.730;2023-07-29T07:42:59;9.18;;;4.90;;
51981;SDS011;37998;53.416;6.730;2023-07-29T07:45:27;11.98;;;5.20;;
51981;SDS011;37998;53.416;6.730;2023-07-29T07:47:53;6.80;;;4.78;;
51981;SDS011;37998;53.416;6.730;2023-07-29T07:50:19;9.85;;;5.05;;
51981;SDS011;37998;53.416;6.730;2023-07-29T07:52:45;8.07;;;5.03;;
51981;SDS011;37998;53.416;6.730;2023-07-29T07:55:11;8.93;;;5.13;;
51981;SDS011;37998;53.416;6.730;2023-07-29T07:57:40;8.15;;;5.30;;
51981;SDS011;37998;53.416;6.730;2023-07-29T08:00:06;7.70;;;4.55;;
51981;SDS011;37998;53.416;6.730;2023-07-29T08:02:38;7.80;;;4.28;;
51981;SDS011;37998;53.416;6.730;2023-07-29T08:05:04;8.35;;;4.65;;
51981;SDS011;37998;53.416;6.730;2023-07-29T08:07:30;9.35;;;4.57;;
51981;SDS011;37998;53.416;6.730;2023-07-29T08:09:56;9.82;;;4.78;;
51981;SDS011;37998;53.416;6.730;2023-07-29T08:12:22;8.63;;;4.55;;
51981;SDS011;37998;53.416;6.730;2023-07-29T08:14:48;11.48;;;4.30;;
51981;SDS011;37998;53.416;6.730;2023-07-29T08:17:14;6.93;;;4.53;;
51981;SDS011;37998;53.416;6.730;2023-07-29T08:19:43;5.78;;;4.03;;
51981;SDS011;37998;53.416;6.730;2023-07-29T08:22:09;11.48;;;4.18;;
51981;SDS011;37998;53.416;6.730;2023-07-29T08:24:35;11.77;;;4.93;;
51981;SDS011;37998;53.416;6.730;2023-07-29T08:27:01;7.40;;;4.13;;
51981;SDS011;37998;53.416;6.730;2023-07-29T08:29:27;7.10;;;4.05;;
51981;SDS011;37998;53.416;6.730;2023-07-29T08:31:55;8.70;;;4.25;;
51981;SDS011;37998;53.416;6.730;2023-07-29T08:34:21;9.13;;;3.90;;
51981;SDS011;37998;53.416;6.730;2023-07-29T08:36:50;7.80;;;4.07;;
51981;SDS011;37998;53.416;6.730;2023-07-29T08:39:16;9.95;;;4.15;;
51981;SDS011;37998;53.416;6.730;2023-07-29T08:41:56;11.02;;;4.03;;
51981;SDS011;37998;53.416;6.730;2023-07-29T08:44:29;8.48;;;3.53;;
51981;SDS011;37998;53.416;6.730;2023-07-29T08:49:26;10.40;;;4.03;;
51981;SDS011;37998;53.416;6.730;2023-07-29T08:51:53;8.88;;;4.10;;
51981;SDS011;37998;53.416;6.730;2023-07-29T08:54:21;5.47;;;3.50;;
51981;SDS011;37998;53.416;6.730;2023-07-29T08:56:47;9.90;;;4.10;;
51981;SDS011;37998;53.416;6.730;2023-07-29T08:59:13;6.82;;;3.35;;
51981;SDS011;37998;53.416;6.730;2023-07-29T09:01:41;7.22;;;2.80;;
51981;SDS011;37998;53.416;6.730;2023-07-29T09:04:07;11.93;;;3.78;;
51981;SDS011;37998;53.416;6.730;2023-07-29T09:06:33;6.75;;;3.92;;
51981;SDS011;37998;53.416;6.730;2023-07-29T09:09:01;7.90;;;3.40;;
51981;SDS011;37998;53.416;6.730;2023-07-29T09:11:28;6.85;;;3.22;;
51981;SDS011;37998;53.416;6.730;2023-07-29T09:13:54;4.57;;;3.20;;
51981;SDS011;37998;53.416;6.730;2023-07-29T09:16:20;5.72;;;3.22;;
51981;SDS011;37998;53.416;6.730;2023-07-29T09:18:47;7.10;;;2.95;;
51981;SDS011;37998;53.416;6.730;2023-07-29T09:21:16;7.28;;;3.22;;
51981;SDS011;37998;53.416;6.730;2023-07-29T09:23:43;7.53;;;3.10;;
51981;SDS011;37998;53.416;6.730;2023-07-29T09:26:10;5.13;;;3.08;;
51981;SDS011;37998;53.416;6.730;2023-07-29T09:28:37;10.60;;;3.53;;
51981;SDS011;37998;53.416;6.730;2023-07-29T09:31:04;5.50;;;2.90;;
51981;SDS011;37998;53.416;6.730;2023-07-29T09:33:34;7.93;;;2.83;;
51981;SDS011;37998;53.416;6.730;2023-07-29T09:36:07;7.20;;;2.83;;
51981;SDS011;37998;53.416;6.730;2023-07-29T09:38:35;7.25;;;3.13;;
51981;SDS011;37998;53.416;6.730;2023-07-29T09:41:01;5.50;;;2.75;;
51981;SDS011;37998;53.416;6.730;2023-07-29T09:43:31;7.38;;;2.50;;
51981;SDS011;37998;53.416;6.730;2023-07-29T09:46:01;6.78;;;2.65;;
51981;SDS011;37998;53.416;6.730;2023-07-29T09:48:32;6.35;;;2.65;;
51981;SDS011;37998;53.416;6.730;2023-07-29T09:51:12;4.25;;;2.05;;
51981;SDS011;37998;53.416;6.730;2023-07-29T09:53:40;4.80;;;2.22;;
51981;SDS011;37998;53.416;6.730;2023-07-29T09:56:10;5.55;;;2.65;;
51981;SDS011;37998;53.416;6.730;2023-07-29T09:58:36;5.55;;;2.15;;
51981;SDS011;37998;53.416;6.730;2023-07-29T10:01:04;3.75;;;1.90;;
51981;SDS011;37998;53.416;6.730;2023-07-29T10:03:31;3.15;;;2.15;;
51981;SDS011;37998;53.416;6.730;2023-07-29T10:06:04;6.45;;;2.28;;
51981;SDS011;37998;53.416;6.730;2023-07-29T10:08:31;4.47;;;1.83;;
51981;SDS011;37998;53.416;6.730;2023-07-29T10:11:01;9.50;;;2.45;;
51981;SDS011;37998;53.416;6.730;2023-07-29T10:13:30;4.00;;;1.77;;
51981;SDS011;37998;53.416;6.730;2023-07-29T10:15:56;4.22;;;1.80;;
51981;SDS011;37998;53.416;6.730;2023-07-29T10:18:22;3.20;;;2.25;;
51981;SDS011;37998;53.416;6.730;2023-07-29T10:20:52;3.78;;;1.90;;
51981;SDS011;37998;53.416;6.730;2023-07-29T10:23:19;5.93;;;1.90;;
51981;SDS011;37998;53.416;6.730;2023-07-29T10:25:54;4.97;;;1.80;;
51981;SDS011;37998;53.416;6.730;2023-07-29T10:28:30;3.63;;;1.60;;
51981;SDS011;37998;53.416;6.730;2023-07-29T10:30:57;3.95;;;1.83;;
51981;SDS011;37998;53.416;6.730;2023-07-29T10:33:24;6.50;;;1.80;;
51981;SDS011;37998;53.416;6.730;2023-07-29T10:35:53;3.90;;;1.90;;
51981;SDS011;37998;53.416;6.730;2023-07-29T10:38:23;2.40;;;1.80;;
51981;SDS011;37998;53.416;6.730;2023-07-29T10:40:53;5.03;;;1.63;;
51981;SDS011;37998;53.416;6.730;2023-07-29T10:43:34;6.28;;;1.80;;
51981;SDS011;37998;53.416;6.730;2023-07-29T10:46:15;3.28;;;1.80;;
51981;SDS011;37998;53.416;6.730;2023-07-29T10:48:55;2.78;;;1.70;;
51981;SDS011;37998;53.416;6.730;2023-07-29T10:51:28;4.10;;;1.70;;
51981;SDS011;37998;53.416;6.730;2023-07-29T10:53:56;2.55;;;1.40;;
51981;SDS011;37998;53.416;6.730;2023-07-29T10:56:26;5.10;;;1.65;;
51981;SDS011;37998;53.416;6.730;2023-07-29T10:58:54;3.05;;;1.45;;
51981;SDS011;37998;53.416;6.730;2023-07-29T11:01:31;3.63;;;1.30;;
51981;SDS011;37998;53.416;6.730;2023-07-29T11:04:45;1.50;;;1.20;;
51981;SDS011;37998;53.416;6.730;2023-07-29T11:12:37;2.40;;;1.33;;
51981;SDS011;37998;53.416;6.730;2023-07-29T11:17:37;3.00;;;1.50;;
51981;SDS011;37998;53.416;6.730;2023-07-29T11:20:09;6.28;;;1.77;;
51981;SDS011;37998;53.416;6.730;2023-07-29T11:22:36;4.72;;;1.70;;
51981;SDS011;37998;53.416;6.730;2023-07-29T11:25:02;3.03;;;1.33;;
51981;SDS011;37998;53.416;6.730;2023-07-29T11:27:29;5.20;;;1.70;;
51981;SDS011;37998;53.416;6.730;2023-07-29T11:30:02;3.25;;;1.52;;
51981;SDS011;37998;53.416;6.730;2023-07-29T11:32:36;2.80;;;1.67;;
51981;SDS011;37998;53.416;6.730;2023-07-29T11:35:04;3.97;;;1.90;;
51981;SDS011;37998;53.416;6.730;2023-07-29T11:37:36;2.45;;;1.67;;
51981;SDS011;37998;53.416;6.730;2023-07-29T11:40:03;3.72;;;1.67;;
51981;SDS011;37998;53.416;6.730;2023-07-29T11:42:31;3.95;;;1.80;;
51981;SDS011;37998;53.416;6.730;2023-07-29T11:44:59;3.95;;;2.10;;
51981;SDS011;37998;53.416;6.730;2023-07-29T11:47:29;7.22;;;2.30;;
51981;SDS011;37998;53.416;6.730;2023-07-29T11:50:00;4.82;;;2.25;;
51981;SDS011;37998;53.416;6.730;2023-07-29T11:52:27;6.85;;;2.08;;
51981;SDS011;37998;53.416;6.730;2023-07-29T11:54:57;5.43;;;2.47;;
51981;SDS011;37998;53.416;6.730;2023-07-29T11:57:23;3.72;;;2.08;;
51981;SDS011;37998;53.416;6.730;2023-07-29T11:59:49;4.72;;;1.83;;
51981;SDS011;37998;53.416;6.730;2023-07-29T12:02:19;2.85;;;1.52;;
51981;SDS011;37998;53.416;6.730;2023-07-29T12:04:47;1.45;;;1.35;;
51981;SDS011;37998;53.416;6.730;2023-07-29T12:07:14;2.35;;;1.52;;
51981;SDS011;37998;53.416;6.730;2023-07-29T12:09:42;1.98;;;1.50;;
51981;SDS011;37998;53.416;6.730;2023-07-29T12:12:08;2.83;;;1.77;;
51981;SDS011;37998;53.416;6.730;2023-07-29T12:14:35;3.75;;;1.45;;
51981;SDS011;37998;53.416;6.730;2023-07-29T12:17:01;2.33;;;1.83;;
51981;SDS011;37998;53.416;6.730;2023-07-29T12:19:33;3.25;;;1.70;;
51981;SDS011;37998;53.416;6.730;2023-07-29T12:22:03;2.15;;;1.48;;
51981;SDS011;37998;53.416;6.730;2023-07-29T12:24:33;5.60;;;2.38;;
51981;SDS011;37998;53.416;6.730;2023-07-29T12:27:01;10.18;;;2.88;;
51981;SDS011;37998;53.416;6.730;2023-07-29T12:29:27;8.65;;;3.83;;
51981;SDS011;37998;53.416;6.730;2023-07-29T12:31:57;5.50;;;2.78;;
51981;SDS011;37998;53.416;6.730;2023-07-29T12:34:28;6.45;;;3.10;;
51981;SDS011;37998;53.416;6.730;2023-07-29T12:36:55;5.65;;;2.67;;
51981;SDS011;37998;53.416;6.730;2023-07-29T12:39:25;4.28;;;2.33;;
51981;SDS011;37998;53.416;6.730;2023-07-29T12:41:53;6.63;;;2.45;;
51981;SDS011;37998;53.416;6.730;2023-07-29T12:44:20;5.47;;;2.65;;
51981;SDS011;37998;53.416;6.730;2023-07-29T12:46:47;5.22;;;2.92;;
51981;SDS011;37998;53.416;6.730;2023-07-29T12:49:13;5.97;;;2.78;;
51981;SDS011;37998;53.416;6.730;2023-07-29T12:51:40;5.47;;;2.50;;
51981;SDS011;37998;53.416;6.730;2023-07-29T12:54:06;5.40;;;2.55;;
51981;SDS011;37998;53.416;6.730;2023-07-29T12:56:33;3.78;;;1.92;;
51981;SDS011;37998;53.416;6.730;2023-07-29T12:58:59;4.72;;;2.25;;
51981;SDS011;37998;53.416;6.730;2023-07-29T13:01:26;3.58;;;2.50;;
51981;SDS011;37998;53.416;6.730;2023-07-29T13:03:52;4.40;;;2.17;;
51981;SDS011;37998;53.416;6.730;2023-07-29T13:06:19;2.70;;;1.95;;
51981;SDS011;37998;53.416;6.730;2023-07-29T13:08:45;4.28;;;2.42;;
51981;SDS011;37998;53.416;6.730;2023-07-29T13:11:12;6.13;;;2.60;;
51981;SDS011;37998;53.416;6.730;2023-07-29T13:13:38;5.47;;;2.05;;
51981;SDS011;37998;53.416;6.730;2023-07-29T13:16:04;4.43;;;2.80;;
51981;SDS011;37998;53.416;6.730;2023-07-29T13:18:31;3.88;;;2.00;;
51981;SDS011;37998;53.416;6.730;2023-07-29T13:20:58;6.40;;;1.98;;
51981;SDS011;37998;53.416;6.730;2023-07-29T13:23:25;5.82;;;2.13;;
51981;SDS011;37998;53.416;6.730;2023-07-29T13:25:52;4.78;;;2.42;;
51981;SDS011;37998;53.416;6.730;2023-07-29T13:28:23;4.75;;;2.17;;
51981;SDS011;37998;53.416;6.730;2023-07-29T13:30:49;4.45;;;1.80;;
51981;SDS011;37998;53.416;6.730;2023-07-29T13:33:15;4.78;;;1.88;;
51981;SDS011;37998;53.416;6.730;2023-07-29T13:35:42;4.70;;;2.40;;
51981;SDS011;37998;53.416;6.730;2023-07-29T13:38:08;2.45;;;1.60;;
51981;SDS011;37998;53.416;6.730;2023-07-29T13:40:34;5.03;;;1.80;;
51981;SDS011;37998;53.416;6.730;2023-07-29T13:42:59;3.28;;;1.75;;
51981;SDS011;37998;53.416;6.730;2023-07-29T13:45:25;3.53;;;2.10;;
51981;SDS011;37998;53.416;6.730;2023-07-29T13:47:51;3.80;;;1.50;;
51981;SDS011;37998;53.416;6.730;2023-07-29T13:50:17;5.15;;;1.67;;
51981;SDS011;37998;53.416;6.730;2023-07-29T13:52:43;3.17;;;1.48;;
51981;SDS011;37998;53.416;6.730;2023-07-29T13:55:10;5.35;;;1.67;;
51981;SDS011;37998;53.416;6.730;2023-07-29T13:57:36;4.15;;;1.52;;
51981;SDS011;37998;53.416;6.730;2023-07-29T14:00:04;3.65;;;1.55;;
51981;SDS011;37998;53.416;6.730;2023-07-29T14:05:02;6.97;;;2.05;;
51981;SDS011;37998;53.416;6.730;2023-07-29T14:07:29;6.47;;;2.00;;
51981;SDS011;37998;53.416;6.730;2023-07-29T14:09:54;3.83;;;1.80;;
51981;SDS011;37998;53.416;6.730;2023-07-29T14:12:20;3.25;;;1.60;;
51981;SDS011;37998;53.416;6.730;2023-07-29T14:14:46;3.40;;;1.73;;
51981;SDS011;37998;53.416;6.730;2023-07-29T14:17:12;5.63;;;1.80;;
51981;SDS011;37998;53.416;6.730;2023-07-29T14:19:38;4.05;;;1.80;;
51981;SDS011;37998;53.416;6.730;2023-07-29T14:22:06;5.20;;;1.92;;
51981;SDS011;37998;53.416;6.730;2023-07-29T14:24:32;3.92;;;1.80;;
51981;SDS011;37998;53.416;6.730;2023-07-29T14:26:58;5.75;;;1.88;;
51981;SDS011;37998;53.416;6.730;2023-07-29T14:29:24;3.50;;;2.00;;
51981;SDS011;37998;53.416;6.730;2023-07-29T14:31:51;4.75;;;1.88;;
51981;SDS011;37998;53.416;6.730;2023-07-29T14:34:17;13.70;;;2.45;;
51981;SDS011;37998;53.416;6.730;2023-07-29T14:36:42;4.13;;;1.80;;
51981;SDS011;37998;53.416;6.730;2023-07-29T14:39:08;4.65;;;1.80;;
51981;SDS011;37998;53.416;6.730;2023-07-29T14:41:35;2.70;;;1.77;;
51981;SDS011;37998;53.416;6.730;2023-07-29T14:44:01;5.00;;;2.13;;
51981;SDS011;37998;53.416;6.730;2023-07-29T14:46:27;6.03;;;1.90;;
51981;SDS011;37998;53.416;6.730;2023-07-29T14:48:53;4.68;;;1.83;;
51981;SDS011;37998;53.416;6.730;2023-07-29T14:51:19;3.30;;;1.92;;
51981;SDS011;37998;53.416;6.730;2023-07-29T14:53:45;3.53;;;1.77;;
51981;SDS011;37998;53.416;6.730;2023-07-29T14:56:11;5.32;;;2.38;;
51981;SDS011;37998;53.416;6.730;2023-07-29T14:58:38;2.85;;;1.38;;
51981;SDS011;37998;53.416;6.730;2023-07-29T15:01:07;3.80;;;1.80;;
51981;SDS011;37998;53.416;6.730;2023-07-29T15:03:33;3.30;;;1.73;;